Time;durP1;ratioP1;P1;durP2;ratioP2;P2;SDS_P1;SDS_P2;PMS_P1;PMS_P2;Temp;Humidity;BMP_temperature;BMP_pressure;BME280_temperature;BME280_humidity;BME280_pressure;Samples;Min_cycle;Max_cycle;Signal;HPM_P1;HPM_P2
2023/02/11 00:01:06;;;;;;;62.35;21.27;;;4.00;85.60;;;;;;4986499;28;20052;-75
2023/02/11 00:03:34;;;;;;;64.30;21.23;;;4.00;85.80;;;;;;4994017;28;20045;-75
2023/02/11 00:06:04;;;;;;;63.42;21.45;;;4.00;86.00;;;;;;4988150;28;20359;-75
2023/02/11 00:08:30;;;;;;;54.65;20.35;;;4.00;86.10;;;;;;4986361;28;20052;-75
2023/02/11 00:10:57;;;;;;;62.22;21.17;;;4.10;86.30;;;;;;5003927;28;20258;-75
2023/02/11 00:13:24;;;;;;;60.55;20.77;;;4.10;86.40;;;;;;5004606;28;20374;-75
2023/02/11 00:15:51;;;;;;;59.15;21.92;;;4.10;86.40;;;;;;4990152;28;20042;-75
2023/02/11 00:18:18;;;;;;;63.00;21.70;;;4.10;86.60;;;;;;5002888;28;20655;-75
2023/02/11 00:20:45;;;;;;;61.33;21.42;;;4.10;86.80;;;;;;5003272;28;20077;-75
2023/02/11 00:23:12;;;;;;;58.83;22.20;;;4.10;86.90;;;;;;5004505;28;20054;-75
2023/02/11 00:25:44;;;;;;;60.95;21.98;;;4.10;87.10;;;;;;5003416;28;20141;-74
2023/02/11 00:28:14;;;;;;;66.03;21.00;;;4.20;87.10;;;;;;5002345;28;20062;-75
2023/02/11 00:30:41;;;;;;;71.43;21.83;;;4.20;87.30;;;;;;5003553;28;20107;-76
2023/02/11 00:33:08;;;;;;;91.95;23.77;;;4.20;87.50;;;;;;4987174;28;20056;-76
2023/02/11 00:35:37;;;;;;;61.55;22.00;;;4.20;87.60;;;;;;4985575;28;20049;-77
2023/02/11 00:38:04;;;;;;;63.00;22.67;;;4.20;87.80;;;;;;5003382;28;20841;-76
2023/02/11 00:40:31;;;;;;;68.00;24.38;;;4.20;87.90;;;;;;4985815;28;20049;-76
2023/02/11 00:42:57;;;;;;;65.88;22.48;;;4.20;88.10;;;;;;4989871;28;20056;-76
2023/02/11 00:45:24;;;;;;;70.82;22.58;;;4.20;88.20;;;;;;5003682;28;20053;-76
2023/02/11 00:47:51;;;;;;;72.55;23.80;;;4.20;88.40;;;;;;5003655;28;20085;-76
2023/02/11 00:50:18;;;;;;;64.80;23.17;;;4.20;88.50;;;;;;4986301;28;20490;-76
2023/02/11 00:52:45;;;;;;;69.97;24.63;;;4.20;88.80;;;;;;5002764;28;20038;-75
2023/02/11 00:55:11;;;;;;;69.40;25.10;;;4.20;88.80;;;;;;4987032;28;20049;-75
2023/02/11 00:57:38;;;;;;;67.15;24.98;;;4.20;89.00;;;;;;5003650;28;20045;-75
2023/02/11 01:00:06;;;;;;;69.10;25.10;;;4.20;89.20;;;;;;5002891;28;20233;-76
2023/02/11 01:02:33;;;;;;;66.15;22.95;;;4.20;89.40;;;;;;4998135;28;20065;-76
2023/02/11 01:05:00;;;;;;;67.25;25.27;;;4.20;89.30;;;;;;5002621;28;20096;-76
2023/02/11 01:07:27;;;;;;;62.72;24.52;;;4.20;89.40;;;;;;4986032;28;20049;-76
2023/02/11 01:09:54;;;;;;;66.03;25.02;;;4.30;89.70;;;;;;5002526;28;20049;-76
2023/02/11 01:12:21;;;;;;;60.38;23.35;;;4.30;89.80;;;;;;5003194;28;20050;-75
2023/02/11 01:14:48;;;;;;;70.97;24.90;;;4.30;90.10;;;;;;5002543;28;20050;-76
2023/02/11 01:17:15;;;;;;;60.83;23.08;;;4.30;90.50;;;;;;4986540;28;20058;-76
2023/02/11 01:19:42;;;;;;;66.38;23.83;;;4.30;91.10;;;;;;5005164;28;20042;-75
2023/02/11 01:22:09;;;;;;;71.15;24.75;;;4.30;91.50;;;;;;5003248;28;20053;-76
2023/02/11 01:24:35;;;;;;;69.97;24.27;;;4.30;91.60;;;;;;4986958;28;20092;-76
2023/02/11 01:27:02;;;;;;;62.35;24.10;;;4.30;91.90;;;;;;4986769;28;20058;-76
2023/02/11 01:29:29;;;;;;;64.07;24.05;;;4.30;92.00;;;;;;4983173;28;20057;-76
2023/02/11 01:31:56;;;;;;;73.00;26.33;;;4.30;92.10;;;;;;4986074;28;20169;-75
2023/02/11 01:34:23;;;;;;;67.68;25.40;;;4.40;92.20;;;;;;5002171;28;20132;-75
2023/02/11 01:36:50;;;;;;;68.78;25.85;;;4.40;92.10;;;;;;4985323;28;20479;-75
2023/02/11 01:39:17;;;;;;;72.78;26.75;;;4.40;92.30;;;;;;4986092;28;20353;-75
2023/02/11 01:41:43;;;;;;;60.35;25.40;;;4.40;92.40;;;;;;4985146;28;20054;-75
2023/02/11 01:44:25;;;;;;;69.53;24.67;;;4.40;92.70;;;;;;4985897;28;20045;-75
2023/02/11 01:46:53;;;;;;;67.35;25.35;;;4.40;92.70;;;;;;5001319;28;20042;-75
2023/02/11 01:49:43;;;;;;;69.30;25.25;;;4.40;92.80;;;;;;4984388;28;20062;-74
2023/02/11 01:52:21;;;;;;;65.30;24.25;;;4.40;92.90;;;;;;5000120;28;20409;-74
2023/02/11 01:57:59;;;;;;;64.85;27.42;;;4.50;93.20;;;;;;5000648;28;20057;-75
2023/02/11 02:00:32;;;;;;;73.82;26.77;;;4.50;93.40;;;;;;5002805;28;20049;-75
2023/02/11 02:03:18;;;;;;;66.80;27.17;;;4.50;93.20;;;;;;4987033;28;20072;-75
2023/02/11 02:06:11;;;;;;;76.13;26.98;;;4.50;93.40;;;;;;5002693;28;20055;-75
2023/02/11 02:08:49;;;;;;;71.22;26.58;;;4.50;93.50;;;;;;4951811;28;20402;-75
2023/02/11 02:11:15;;;;;;;74.15;26.23;;;4.50;93.50;;;;;;5006505;28;20053;-75
2023/02/11 02:13:43;;;;;;;79.97;27.75;;;4.60;93.70;;;;;;5006587;28;20057;-75
2023/02/11 02:16:16;;;;;;;73.43;27.63;;;4.60;93.60;;;;;;4991231;28;20061;-75
2023/02/11 02:19:06;;;;;;;70.18;28.35;;;4.60;93.70;;;;;;4999900;28;20054;-75
2023/02/11 02:22:23;;;;;;;74.63;27.00;;;4.60;93.70;;;;;;5005721;28;20376;-75
2023/02/11 02:25:25;;;;;;;63.35;27.42;;;4.60;93.70;;;;;;4945225;28;20049;-75
2023/02/11 02:28:29;;;;;;;81.22;27.85;;;4.70;93.70;;;;;;4988171;28;20050;-75
2023/02/11 02:31:08;;;;;;;78.90;28.60;;;4.70;93.80;;;;;;5003939;28;20434;-74
2023/02/11 02:33:56;;;;;;;64.32;26.88;;;4.70;93.60;;;;;;5001418;28;20049;-75
2023/02/11 02:36:42;;;;;;;80.72;27.77;;;4.70;93.90;;;;;;5005297;28;20056;-75
2023/02/11 02:39:23;;;;;;;79.03;27.73;;;4.70;93.90;;;;;;5003102;28;20053;-75
2023/02/11 02:41:52;;;;;;;63.15;25.92;;;4.70;93.70;;;;;;5004277;28;20073;-75
2023/02/11 02:44:19;;;;;;;70.28;25.95;;;4.70;93.90;;;;;;5005468;28;20049;-75
2023/02/11 02:46:46;;;;;;;66.68;26.73;;;4.70;94.00;;;;;;5005887;28;20046;-75
2023/02/11 02:49:15;;;;;;;61.22;25.40;;;4.70;94.20;;;;;;5005438;28;20061;-75
2023/02/11 02:52:02;;;;;;;63.90;26.42;;;4.70;94.10;;;;;;5006116;28;20069;-75
2023/02/11 02:54:44;;;;;;;67.78;25.35;;;4.80;94.10;;;;;;4986611;28;20050;-75
2023/02/11 02:57:24;;;;;;;75.13;26.27;;;4.80;94.20;;;;;;4987279;28;20049;-75
2023/02/11 03:00:13;;;;;;;67.82;26.75;;;4.80;94.20;;;;;;5004687;28;20100;-75
2023/02/11 03:03:02;;;;;;;65.70;25.63;;;4.80;94.20;;;;;;5002153;28;20060;-75
2023/02/11 03:05:44;;;;;;;63.33;26.23;;;4.80;94.30;;;;;;5000028;28;20061;-75
2023/02/11 03:08:18;;;;;;;68.63;25.27;;;4.80;94.60;;;;;;5005048;28;20064;-75
2023/02/11 03:10:50;;;;;;;66.38;26.13;;;4.80;94.60;;;;;;4987103;28;20467;-75
2023/02/11 03:13:21;;;;;;;65.35;24.60;;;4.80;94.70;;;;;;4992486;28;20080;-75
2023/02/11 03:15:52;;;;;;;66.43;25.60;;;4.80;94.90;;;;;;5004100;28;20049;-75
2023/02/11 03:18:25;;;;;;;78.28;25.73;;;4.80;95.10;;;;;;4987244;28;20068;-74
2023/02/11 03:20:53;;;;;;;76.93;27.15;;;4.80;95.20;;;;;;4986585;28;20502;-75
2023/02/11 03:23:34;;;;;;;65.93;25.88;;;4.90;95.70;;;;;;5005584;28;20054;-75
2023/02/11 03:26:06;;;;;;;61.25;25.27;;;4.90;95.80;;;;;;5005742;28;20050;-75
2023/02/11 03:29:15;;;;;;;68.75;26.35;;;4.90;96.20;;;;;;5001093;28;20049;-75
2023/02/11 03:31:44;;;;;;;65.45;25.27;;;4.80;96.70;;;;;;5007073;28;20064;-75
2023/02/11 03:34:18;;;;;;;75.95;26.75;;;4.80;97.60;;;;;;4988852;28;20072;-75
2023/02/11 03:36:55;;;;;;;68.03;26.17;;;4.80;97.70;;;;;;5001968;28;20046;-75
2023/02/11 03:39:28;;;;;;;67.75;26.25;;;4.80;98.00;;;;;;5003733;28;20167;-75
2023/02/11 03:41:57;;;;;;;75.88;26.67;;;4.80;98.20;;;;;;5004920;28;20042;-75
2023/02/11 03:44:28;;;;;;;68.03;26.67;;;4.70;98.60;;;;;;5004652;28;20081;-75
2023/02/11 03:46:55;;;;;;;73.53;26.95;;;4.70;98.80;;;;;;5004996;28;20065;-75
2023/02/11 03:49:26;;;;;;;80.22;28.50;;;4.70;99.20;;;;;;4988947;28;20054;-75
2023/02/11 03:51:54;;;;;;;73.10;28.55;;;4.70;99.40;;;;;;4984664;28;20446;-75
2023/02/11 03:54:28;;;;;;;79.05;26.85;;;4.70;99.50;;;;;;5004116;28;20050;-76
2023/02/11 03:56:58;;;;;;;79.78;28.25;;;4.70;99.70;;;;;;5004655;28;20046;-76
2023/02/11 03:59:25;;;;;;;78.78;27.65;;;4.70;99.70;;;;;;5003635;28;20498;-75
2023/02/11 04:01:52;;;;;;;79.32;27.30;;;4.70;99.80;;;;;;5004168;28;20049;-75
2023/02/11 04:04:18;;;;;;;77.97;27.35;;;4.70;99.80;;;;;;5003710;28;20070;-75
2023/02/11 04:06:45;;;;;;;87.57;28.13;;;4.70;99.80;;;;;;4988065;28;20088;-75
2023/02/11 04:09:12;;;;;;;79.32;27.08;;;4.70;99.80;;;;;;5003863;28;20053;-75
2023/02/11 04:11:39;;;;;;;70.47;27.45;;;4.70;99.70;;;;;;5001347;28;20054;-75
2023/02/11 04:14:06;;;;;;;87.10;28.90;;;4.80;99.60;;;;;;4993404;28;20062;-75
2023/02/11 04:16:32;;;;;;;75.55;27.58;;;4.80;99.60;;;;;;4990246;28;20045;-75
2023/02/11 04:19:00;;;;;;;82.93;28.77;;;4.80;99.50;;;;;;5007607;28;20124;-75
2023/02/11 04:21:27;;;;;;;81.43;28.63;;;4.80;99.40;;;;;;5004489;28;20050;-75
2023/02/11 04:23:53;;;;;;;75.72;28.95;;;4.80;99.50;;;;;;5004019;28;20049;-75
2023/02/11 04:26:20;;;;;;;90.70;29.55;;;4.90;99.50;;;;;;4986320;28;20053;-75
2023/02/11 04:28:47;;;;;;;85.45;29.58;;;4.90;99.50;;;;;;5003252;28;20081;-76
2023/02/11 04:31:14;;;;;;;78.47;28.60;;;4.90;99.50;;;;;;5002771;28;20054;-75
2023/02/11 04:33:41;;;;;;;83.53;29.33;;;4.90;99.30;;;;;;4989411;28;20256;-76
2023/02/11 04:36:07;;;;;;;77.80;26.48;;;4.90;99.20;;;;;;5003775;28;20111;-76
2023/02/11 04:38:34;;;;;;;90.10;31.55;;;4.90;99.50;;;;;;4986137;28;20056;-75
2023/02/11 04:41:01;;;;;;;82.40;28.38;;;5.00;99.40;;;;;;5003467;28;20065;-75
2023/02/11 04:43:28;;;;;;;91.43;28.83;;;4.90;99.20;;;;;;4986358;28;20337;-75
2023/02/11 04:45:58;;;;;;;71.47;25.67;;;4.90;99.50;;;;;;4986742;28;20413;-75
2023/02/11 04:48:25;;;;;;;78.53;27.92;;;5.00;99.50;;;;;;5003354;28;20159;-75
2023/02/11 04:50:52;;;;;;;87.43;28.40;;;5.00;99.50;;;;;;4987701;28;20068;-75
2023/02/11 04:53:19;;;;;;;88.97;27.05;;;5.00;99.40;;;;;;4988060;28;20062;-75
2023/02/11 04:55:49;;;;;;;89.25;30.70;;;5.00;99.60;;;;;;5002914;28;20041;-75
2023/02/11 04:58:18;;;;;;;80.47;28.50;;;5.00;99.70;;;;;;4987933;28;20138;-75
2023/02/11 05:00:45;;;;;;;74.72;27.42;;;5.00;99.40;;;;;;4985308;28;20517;-75
2023/02/11 05:03:12;;;;;;;75.30;27.63;;;5.00;99.90;;;;;;5003224;28;20789;-75
2023/02/11 05:05:40;;;;;;;67.90;27.85;;;5.00;99.90;;;;;;4986561;28;20525;-75
2023/02/11 05:08:08;;;;;;;88.30;27.85;;;5.00;100.00;;;;;;5003465;28;20057;-75
2023/02/11 05:10:35;;;;;;;71.13;25.55;;;5.00;100.00;;;;;;5002666;28;20056;-75
2023/02/11 05:13:03;;;;;;;76.05;26.80;;;5.00;100.00;;;;;;5003457;28;20403;-75
2023/02/11 05:15:30;;;;;;;70.15;25.50;;;5.10;100.00;;;;;;4997694;28;20064;-75
2023/02/11 05:17:56;;;;;;;71.65;26.15;;;5.10;100.00;;;;;;5002468;28;20048;-75
2023/02/11 05:20:23;;;;;;;82.70;25.02;;;5.10;100.00;;;;;;4985348;28;20502;-75
2023/02/11 05:22:50;;;;;;;68.50;24.13;;;5.10;100.00;;;;;;5003611;28;20241;-75
2023/02/11 05:25:17;;;;;;;68.75;25.98;;;5.10;100.00;;;;;;5002986;28;20049;-75
2023/02/11 05:27:44;;;;;;;70.40;24.25;;;5.10;100.00;;;;;;5007959;28;20080;-75
2023/02/11 05:30:11;;;;;;;65.00;22.23;;;5.10;100.00;;;;;;4989489;28;20491;-75
2023/02/11 05:32:38;;;;;;;82.15;23.17;;;5.20;100.00;;;;;;5003429;28;20042;-75
2023/02/11 05:35:05;;;;;;;60.20;23.83;;;5.20;100.00;;;;;;4984718;28;20050;-75
2023/02/11 05:37:31;;;;;;;65.47;23.52;;;5.20;100.00;;;;;;5003012;28;20046;-76
2023/02/11 05:39:58;;;;;;;63.55;23.40;;;5.20;100.00;;;;;;4988315;28;20046;-76
2023/02/11 05:42:25;;;;;;;70.45;23.67;;;5.20;100.00;;;;;;5009459;28;20045;-76
2023/02/11 05:44:52;;;;;;;74.00;25.38;;;5.30;100.00;;;;;;5009016;28;20053;-76
2023/02/11 05:47:18;;;;;;;73.50;24.33;;;5.30;100.00;;;;;;5009491;28;20057;-75
2023/02/11 05:49:45;;;;;;;69.70;23.42;;;5.30;100.00;;;;;;5008652;28;20053;-75
2023/02/11 05:52:12;;;;;;;69.95;23.58;;;5.30;100.00;;;;;;5009604;28;20140;-76
2023/02/11 05:54:39;;;;;;;66.25;24.60;;;5.30;100.00;;;;;;5008258;28;20049;-76
2023/02/11 05:57:05;;;;;;;69.07;23.48;;;5.40;99.90;;;;;;5009520;28;20312;-76
2023/02/11 05:59:32;;;;;;;71.85;22.40;;;5.30;99.80;;;;;;5008686;28;20069;-75
2023/02/11 06:01:59;;;;;;;74.63;24.02;;;5.40;99.80;;;;;;4992416;28;20380;-76
2023/02/11 06:04:26;;;;;;;78.75;23.63;;;5.40;99.70;;;;;;5008714;28;20053;-76
2023/02/11 06:06:52;;;;;;;63.70;21.25;;;5.40;99.80;;;;;;5009470;28;20054;-75
2023/02/11 06:09:19;;;;;;;75.38;22.27;;;5.40;99.70;;;;;;5008274;28;20380;-75
2023/02/11 06:11:46;;;;;;;68.05;21.90;;;5.40;99.60;;;;;;5009332;28;20050;-75
2023/02/11 06:14:13;;;;;;;64.40;20.90;;;5.50;99.50;;;;;;5008408;28;20518;-75
2023/02/11 06:16:40;;;;;;;57.88;18.73;;;5.50;99.40;;;;;;5009293;28;20084;-75
2023/02/11 06:19:07;;;;;;;62.05;20.63;;;5.50;99.40;;;;;;4991455;28;20056;-76
2023/02/11 06:21:33;;;;;;;61.08;21.98;;;5.60;99.30;;;;;;5008679;28;20042;-76
2023/02/11 06:24:10;;;;;;;54.22;20.67;;;5.60;99.30;;;;;;5008826;28;20561;-75
2023/02/11 06:26:37;;;;;;;60.42;21.23;;;5.60;99.10;;;;;;5012140;28;20436;-75
2023/02/11 06:29:04;;;;;;;54.00;19.92;;;5.60;99.00;;;;;;4993875;28;20398;-75
2023/02/11 06:31:30;;;;;;;60.75;20.90;;;5.60;98.90;;;;;;5008742;28;20061;-75
2023/02/11 06:33:58;;;;;;;57.83;19.13;;;5.60;99.00;;;;;;5008376;28;20056;-75
2023/02/11 06:36:25;;;;;;;64.53;20.88;;;5.70;99.00;;;;;;4993508;28;20052;-74
2023/02/11 06:38:52;;;;;;;62.45;20.45;;;5.70;98.90;;;;;;5008732;28;20069;-75
2023/02/11 06:41:19;;;;;;;56.05;19.88;;;5.70;98.90;;;;;;5008958;28;20049;-75
2023/02/11 06:43:46;;;;;;;60.20;21.38;;;5.70;99.00;;;;;;5002998;28;20099;-75
2023/02/11 06:46:14;;;;;;;59.40;18.58;;;5.70;98.80;;;;;;4991315;28;20165;-75
2023/02/11 06:48:41;;;;;;;53.28;19.75;;;5.70;98.70;;;;;;5008709;28;20387;-75
2023/02/11 06:51:12;;;;;;;55.83;19.00;;;5.70;99.00;;;;;;4991010;28;20523;-76
2023/02/11 06:53:42;;;;;;;51.75;18.73;;;5.70;98.90;;;;;;5005653;28;20418;-76
2023/02/11 06:56:12;;;;;;;58.35;20.08;;;5.80;99.10;;;;;;4991904;28;20053;-76
2023/02/11 06:58:39;;;;;;;50.47;19.42;;;5.80;99.10;;;;;;4991832;28;20042;-76
2023/02/11 07:01:09;;;;;;;61.70;20.45;;;5.80;98.80;;;;;;4987654;28;20049;-76
2023/02/11 07:03:37;;;;;;;62.38;20.55;;;5.80;99.00;;;;;;4993069;28;20049;-75
2023/02/11 07:06:06;;;;;;;59.40;20.13;;;5.90;99.00;;;;;;5007821;28;20054;-76
2023/02/11 07:08:35;;;;;;;61.90;19.88;;;5.90;98.90;;;;;;5005507;28;20061;-76
2023/02/11 07:11:27;;;;;;;63.45;20.98;;;5.90;98.90;;;;;;5005044;28;20344;-75
2023/02/11 07:13:58;;;;;;;58.95;19.35;;;5.90;98.70;;;;;;4994025;28;20407;-76
2023/02/11 07:16:25;;;;;;;59.38;20.08;;;5.90;98.70;;;;;;4987465;28;20065;-75
2023/02/11 07:18:52;;;;;;;51.40;18.45;;;5.90;99.00;;;;;;5005016;28;20042;-75
2023/02/11 07:21:21;;;;;;;57.83;20.83;;;5.90;99.10;;;;;;5010767;28;20056;-75
2023/02/11 07:23:47;;;;;;;67.03;21.65;;;5.90;99.00;;;;;;5004747;28;20052;-75
2023/02/11 07:26:21;;;;;;;66.97;24.13;;;5.90;98.90;;;;;;5004539;28;20054;-76
2023/02/11 07:28:49;;;;;;;50.85;19.52;;;5.90;99.20;;;;;;5004342;28;20532;-76
2023/02/11 07:31:25;;;;;;;53.88;17.98;;;5.90;99.40;;;;;;5005568;28;20058;-76
2023/02/11 07:33:54;;;;;;;53.90;19.55;;;5.90;99.30;;;;;;4986802;28;20143;-75
2023/02/11 07:36:21;;;;;;;62.65;18.00;;;6.00;99.50;;;;;;5005266;28;20474;-76
2023/02/11 07:38:48;;;;;;;47.10;18.08;;;6.00;99.80;;;;;;5004186;28;20050;-76
2023/02/11 07:41:19;;;;;;;55.63;16.85;;;6.00;99.80;;;;;;5004920;28;20612;-76
2023/02/11 07:43:46;;;;;;;45.75;16.58;;;6.00;100.00;;;;;;4999064;28;20049;-76
2023/02/11 07:46:19;;;;;;;44.28;16.48;;;6.00;100.00;;;;;;4987039;28;20068;-75
2023/02/11 07:48:47;;;;;;;51.03;17.15;;;6.10;100.00;;;;;;4986287;28;20056;-75
2023/02/11 07:51:17;;;;;;;52.45;15.50;;;6.10;100.00;;;;;;5003189;28;20427;-76
2023/02/11 07:53:44;;;;;;;43.78;15.82;;;6.10;100.00;;;;;;5004095;28;20678;-76
2023/02/11 07:56:12;;;;;;;35.72;13.77;;;6.10;100.00;;;;;;5004333;28;20270;-76
2023/02/11 07:58:42;;;;;;;42.83;14.25;;;6.20;100.00;;;;;;5004835;28;20189;-76
2023/02/11 08:01:13;;;;;;;41.75;13.73;;;6.20;100.00;;;;;;4987356;28;20477;-75
2023/02/11 08:03:41;;;;;;;47.20;13.65;;;6.30;100.00;;;;;;5004541;28;20073;-76
2023/02/11 08:06:13;;;;;;;37.70;12.38;;;6.30;99.80;;;;;;4987324;28;20057;-76
2023/02/11 08:08:41;;;;;;;33.38;11.55;;;6.40;99.70;;;;;;5004425;28;20092;-76
2023/02/11 08:11:16;;;;;;;38.25;12.18;;;6.40;99.40;;;;;;4989442;28;20054;-76
2023/02/11 08:13:44;;;;;;;36.22;11.30;;;6.50;99.40;;;;;;5003697;28;20042;-76
2023/02/11 08:16:25;;;;;;;37.85;11.13;;;6.50;99.20;;;;;;4990516;28;20564;-76
2023/02/11 08:18:54;;;;;;;34.05;11.45;;;6.50;98.90;;;;;;4984199;28;20050;-76
2023/02/11 08:21:21;;;;;;;26.58;10.52;;;6.60;98.70;;;;;;4986915;28;20050;-76
2023/02/11 08:23:48;;;;;;;24.98;9.68;;;6.60;98.60;;;;;;5003839;28;20046;-76
2023/02/11 08:26:21;;;;;;;28.48;9.35;;;6.60;98.30;;;;;;5003799;28;20050;-76
2023/02/11 08:28:49;;;;;;;25.23;9.52;;;6.60;98.10;;;;;;5005952;28;20042;-76
2023/02/11 08:31:22;;;;;;;29.58;9.88;;;6.70;97.80;;;;;;5004167;28;20050;-76
2023/02/11 08:33:50;;;;;;;25.48;10.07;;;6.70;97.90;;;;;;5003664;28;20103;-77
2023/02/11 08:36:22;;;;;;;31.42;9.70;;;6.80;97.90;;;;;;4986246;28;20410;-77
2023/02/11 08:38:49;;;;;;;24.67;8.82;;;6.80;97.50;;;;;;4985499;28;20410;-76
2023/02/11 08:41:16;;;;;;;27.17;8.50;;;6.90;97.30;;;;;;4986144;28;20045;-77
2023/02/11 08:43:44;;;;;;;21.42;8.75;;;6.90;96.90;;;;;;4997696;28;20049;-76
2023/02/11 08:46:16;;;;;;;26.48;8.30;;;6.90;96.50;;;;;;4986322;28;20056;-76
2023/02/11 08:48:43;;;;;;;23.48;8.35;;;6.90;96.60;;;;;;5003888;28;20081;-77
2023/02/11 08:51:30;;;;;;;23.40;7.95;;;7.00;96.50;;;;;;5002662;28;20213;-78
2023/02/11 08:53:57;;;;;;;29.88;8.70;;;7.00;96.40;;;;;;4999294;28;20483;-77
2023/02/11 08:56:25;;;;;;;24.85;8.10;;;7.00;96.30;;;;;;4985185;28;20053;-77
2023/02/11 08:58:52;;;;;;;33.47;8.25;;;7.10;96.30;;;;;;5002920;28;20049;-77
2023/02/11 09:01:22;;;;;;;16.67;6.82;;;7.10;95.90;;;;;;5003409;28;20581;-76
2023/02/11 09:03:49;;;;;;;19.52;8.25;;;7.20;95.90;;;;;;5005871;28;20042;-77
2023/02/11 09:06:17;;;;;;;23.50;7.78;;;7.20;95.80;;;;;;5003018;28;20403;-77
2023/02/11 09:08:48;;;;;;;22.08;7.75;;;7.30;95.50;;;;;;4985305;28;20050;-77
2023/02/11 09:11:17;;;;;;;17.10;6.90;;;7.30;95.10;;;;;;4985676;28;20049;-76
2023/02/11 09:13:44;;;;;;;19.48;7.93;;;7.30;95.00;;;;;;5002556;28;20514;-76
2023/02/11 09:16:23;;;;;;;21.83;8.00;;;7.40;94.70;;;;;;5004639;28;20061;-76
2023/02/11 09:18:51;;;;;;;25.02;8.35;;;7.40;94.50;;;;;;5002978;28;20122;-76
2023/02/11 09:21:19;;;;;;;23.75;8.23;;;7.40;94.60;;;;;;4986204;28;20056;-76
2023/02/11 09:23:46;;;;;;;20.73;7.50;;;7.40;94.60;;;;;;5002858;28;20444;-76
2023/02/11 09:26:20;;;;;;;21.20;7.90;;;7.40;94.70;;;;;;5003353;28;20473;-76
2023/02/11 09:28:47;;;;;;;31.83;8.55;;;7.40;95.00;;;;;;5003159;28;20119;-77
2023/02/11 09:31:17;;;;;;;22.55;7.20;;;7.40;95.00;;;;;;4986425;28;20046;-77
2023/02/11 09:33:46;;;;;;;23.95;7.93;;;7.50;94.30;;;;;;5003142;28;20497;-77
2023/02/11 09:36:25;;;;;;;27.27;8.65;;;7.50;94.60;;;;;;4986128;28;20069;-77
2023/02/11 09:38:52;;;;;;;22.02;7.68;;;7.50;94.60;;;;;;4987745;28;20516;-77
2023/02/11 09:41:22;;;;;;;26.75;8.75;;;7.60;94.80;;;;;;4985840;28;20060;-77
2023/02/11 09:44:03;;;;;;;23.70;8.45;;;7.70;95.70;;;;;;4997016;28;20046;-77
2023/02/11 09:46:33;;;;;;;24.45;8.75;;;7.80;95.10;;;;;;5002908;28;20061;-77
2023/02/11 09:49:01;;;;;;;25.45;8.10;;;7.90;94.10;;;;;;5003238;28;20049;-77
2023/02/11 09:51:55;;;;;;;17.10;6.97;;;7.90;93.80;;;;;;4985567;28;20415;-77
2023/02/11 09:54:29;;;;;;;16.23;6.38;;;8.00;93.60;;;;;;4984758;28;20825;-77
2023/02/11 09:56:56;;;;;;;13.38;5.85;;;8.00;93.40;;;;;;4985968;28;20054;-77
2023/02/11 09:59:22;;;;;;;19.27;6.25;;;8.00;93.50;;;;;;5002438;28;20077;-77
2023/02/11 10:01:55;;;;;;;15.32;5.95;;;8.00;94.00;;;;;;5002865;28;20068;-78
2023/02/11 10:04:34;;;;;;;13.27;5.63;;;8.20;94.20;;;;;;5002680;28;20057;-77
2023/02/11 10:07:35;;;;;;;16.50;6.82;;;8.50;92.70;;;;;;4985772;28;20073;-76
2023/02/11 10:10:43;;;;;;;15.85;5.75;;;8.70;92.30;;;;;;5002047;28;20061;-76
2023/02/11 10:13:31;;;;;;;22.48;5.93;;;8.90;91.30;;;;;;4944648;28;20118;-76
2023/02/11 10:16:12;;;;;;;18.60;5.55;;;8.90;89.90;;;;;;4937925;28;20069;-76
2023/02/11 10:19:12;;;;;;;17.15;5.80;;;8.90;90.10;;;;;;4980429;28;20107;-76
2023/02/11 10:21:50;;;;;;;12.77;5.78;;;8.80;91.20;;;;;;4972066;28;20250;-76
2023/02/11 10:24:17;;;;;;;13.95;5.75;;;9.00;90.50;;;;;;4984156;28;20054;-76
2023/02/11 10:26:45;;;;;;;23.27;7.03;;;8.90;90.40;;;;;;5005984;28;20050;-77
2023/02/11 10:29:34;;;;;;;12.43;5.07;;;8.90;90.20;;;;;;5005940;28;20057;-77
2023/02/11 10:32:06;;;;;;;29.27;6.28;;;8.80;90.30;;;;;;4987643;28;20572;-77
2023/02/11 10:34:36;;;;;;;14.75;6.15;;;8.70;91.10;;;;;;4998529;28;20050;-75
2023/02/11 10:37:03;;;;;;;12.85;4.97;;;8.60;90.60;;;;;;5006203;28;20042;-76
2023/02/11 10:39:30;;;;;;;23.23;6.10;;;8.50;91.50;;;;;;4987675;28;20046;-76
2023/02/11 10:42:04;;;;;;;14.43;5.43;;;8.50;92.00;;;;;;5005883;28;20046;-76
2023/02/11 10:44:37;;;;;;;13.63;5.53;;;8.40;92.10;;;;;;4998686;28;20053;-76
2023/02/11 10:47:31;;;;;;;18.35;5.93;;;8.30;92.50;;;;;;5005601;28;20049;-78
2023/02/11 10:50:02;;;;;;;15.07;5.75;;;8.20;92.30;;;;;;5004828;28;20049;-76
2023/02/11 10:52:30;;;;;;;14.63;5.00;;;8.10;92.60;;;;;;4999978;28;20053;-75
2023/02/11 10:54:58;;;;;;;14.98;5.68;;;8.10;93.30;;;;;;4987820;28;20193;-75
2023/02/11 10:57:53;;;;;;;15.02;5.78;;;8.10;93.70;;;;;;4988866;28;20057;-75
2023/02/11 11:00:37;;;;;;;16.33;5.07;;;8.00;93.60;;;;;;4987802;28;20050;-75
2023/02/11 11:03:20;;;;;;;19.90;6.07;;;8.00;93.70;;;;;;5005594;28;20513;-76
2023/02/11 11:05:58;;;;;;;12.82;5.47;;;8.00;93.90;;;;;;4989378;28;20054;-76
2023/02/11 11:08:50;;;;;;;17.13;5.35;;;8.00;93.80;;;;;;4990183;28;20054;-77
2023/02/11 11:11:22;;;;;;;10.55;4.50;;;7.90;94.40;;;;;;4987910;28;20057;-76
2023/02/11 11:13:51;;;;;;;10.20;4.55;;;7.90;94.60;;;;;;5005102;28;20060;-76
2023/02/11 11:16:24;;;;;;;13.77;4.90;;;8.00;94.50;;;;;;5003285;28;20568;-76
2023/02/11 11:19:06;;;;;;;14.23;4.43;;;8.00;94.40;;;;;;5004779;28;20505;-76
2023/02/11 11:21:43;;;;;;;10.25;4.55;;;8.20;94.40;;;;;;5005502;28;20446;-76
2023/02/11 11:24:38;;;;;;;12.70;4.47;;;8.30;93.30;;;;;;4988179;28;20046;-76
2023/02/11 11:27:05;;;;;;;10.80;4.25;;;8.30;92.70;;;;;;5004634;28;20072;-77
2023/02/11 11:29:44;;;;;;;13.82;5.18;;;8.30;92.30;;;;;;5004962;28;20477;-77
2023/02/11 11:32:28;;;;;;;15.73;4.28;;;8.30;92.00;;;;;;5004010;28;20061;-77
2023/02/11 11:35:01;;;;;;;18.17;4.43;;;8.30;91.90;;;;;;5004343;28;20057;-77
2023/02/11 11:37:34;;;;;;;17.80;4.75;;;8.40;91.80;;;;;;5004340;28;20046;-77
2023/02/11 11:40:20;;;;;;;13.80;5.18;;;8.40;92.10;;;;;;4992701;28;20051;-76
2023/02/11 11:43:13;;;;;;;8.93;4.57;;;8.40;92.70;;;;;;4984243;28;20452;-76
2023/02/11 11:45:56;;;;;;;10.65;3.83;;;8.40;92.90;;;;;;5001550;28;20054;-77
2023/02/11 11:48:30;;;;;;;11.70;4.18;;;8.40;93.50;;;;;;5004506;28;20498;-77
2023/02/11 11:51:17;;;;;;;12.45;4.43;;;8.40;93.40;;;;;;4987012;28;20079;-77
2023/02/11 11:54:07;;;;;;;14.00;5.05;;;8.40;93.30;;;;;;4997906;28;20046;-76
2023/02/11 11:56:40;;;;;;;13.05;4.55;;;8.30;93.60;;;;;;4987643;28;20406;-77
2023/02/11 11:59:15;;;;;;;12.68;4.50;;;8.30;93.40;;;;;;4986443;28;20553;-76
2023/02/11 12:02:10;;;;;;;14.97;4.93;;;8.30;93.20;;;;;;4983511;28;20159;-76
2023/02/11 12:04:37;;;;;;;10.80;4.03;;;8.30;93.10;;;;;;4985611;28;20319;-76
2023/02/11 12:07:04;;;;;;;19.75;4.90;;;8.30;93.40;;;;;;4987231;28;20516;-77
2023/02/11 12:10:09;;;;;;;10.05;4.47;;;8.40;93.30;;;;;;5004094;28;20324;-77
2023/02/11 12:13:08;;;;;;;16.00;5.00;;;8.30;93.50;;;;;;5004464;28;20125;-77
2023/02/11 12:15:58;;;;;;;10.05;4.88;;;8.30;94.30;;;;;;4999965;28;20053;-76
2023/02/11 12:18:36;;;;;;;13.00;4.82;;;8.40;94.50;;;;;;5003961;28;20529;-77
2023/02/11 12:21:15;;;;;;;13.35;5.28;;;8.30;93.90;;;;;;4986570;28;20049;-76
2023/02/11 12:24:04;;;;;;;17.67;4.90;;;8.30;94.70;;;;;;4986495;28;20474;-76
2023/02/11 12:26:52;;;;;;;12.57;5.45;;;8.30;94.80;;;;;;5003647;28;20562;-76
2023/02/11 12:29:40;;;;;;;13.63;5.07;;;8.30;95.50;;;;;;5002235;28;20530;-76
2023/02/11 12:32:32;;;;;;;16.92;4.82;;;8.40;95.10;;;;;;4986821;28;20196;-76
2023/02/11 12:35:20;;;;;;;9.93;4.40;;;8.40;95.00;;;;;;5003233;28;20049;-76
2023/02/11 12:38:07;;;;;;;8.52;4.18;;;8.40;94.50;;;;;;4982960;28;20045;-76
2023/02/11 12:40:45;;;;;;;14.27;4.63;;;8.50;93.80;;;;;;5003356;28;20042;-77
2023/02/11 12:43:35;;;;;;;14.07;5.60;;;8.50;94.00;;;;;;5003621;28;20057;-75
2023/02/11 12:46:42;;;;;;;10.77;5.07;;;8.50;93.80;;;;;;4974125;28;20057;-76
2023/02/11 12:49:44;;;;;;;14.35;4.40;;;8.50;93.70;;;;;;5001824;28;20558;-76
2023/02/11 12:52:30;;;;;;;13.15;5.10;;;8.50;93.00;;;;;;5002947;28;20050;-76
2023/02/11 12:55:02;;;;;;;9.65;3.92;;;8.40;93.70;;;;;;4988451;28;20092;-76
2023/02/11 12:57:33;;;;;;;15.45;5.10;;;8.40;93.80;;;;;;4997417;28;20241;-77
2023/02/11 13:00:18;;;;;;;14.13;4.50;;;8.40;93.30;;;;;;4997512;28;20049;-76
2023/02/11 13:02:53;;;;;;;12.07;4.18;;;8.30;93.10;;;;;;5000259;28;20046;-77
2023/02/11 13:05:52;;;;;;;28.00;6.00;;;8.30;93.50;;;;;;5002996;28;20101;-77
2023/02/11 13:08:39;;;;;;;16.33;4.55;;;8.30;93.90;;;;;;5002164;28;20506;-77
2023/02/11 13:11:13;;;;;;;14.57;4.72;;;8.30;93.70;;;;;;5002751;28;20061;-77
2023/02/11 13:13:52;;;;;;;15.55;3.85;;;8.30;93.90;;;;;;4988544;28;20450;-77